sensor_id;sensor_type;location;lat;lon;timestamp;P1;durP1;ratioP1;P2;durP2;ratioP2
2173;SDS011;1093;51.424;11.764;2023-05-13T00:01:04;16.90;;;14.40;;
2173;SDS011;1093;51.424;11.764;2023-05-13T00:03:31;14.60;;;13.13;;
2173;SDS011;1093;51.424;11.764;2023-05-13T00:05:57;15.40;;;13.80;;
2173;SDS011;1093;51.424;11.764;2023-05-13T00:08:25;14.80;;;13.23;;
2173;SDS011;1093;51.424;11.764;2023-05-13T00:10:52;15.43;;;13.77;;
2173;SDS011;1093;51.424;11.764;2023-05-13T00:13:20;15.70;;;14.10;;
2173;SDS011;1093;51.424;11.764;2023-05-13T00:15:46;16.40;;;14.20;;
2173;SDS011;1093;51.424;11.764;2023-05-13T00:18:13;15.13;;;13.63;;
2173;SDS011;1093;51.424;11.764;2023-05-13T00:20:40;14.93;;;13.43;;
2173;SDS011;1093;51.424;11.764;2023-05-13T00:23:08;15.13;;;13.73;;
2173;SDS011;1093;51.424;11.764;2023-05-13T00:25:35;17.47;;;15.63;;
2173;SDS011;1093;51.424;11.764;2023-05-13T00:28:02;17.23;;;14.80;;
2173;SDS011;1093;51.424;11.764;2023-05-13T00:30:30;16.37;;;14.77;;
2173;SDS011;1093;51.424;11.764;2023-05-13T00:32:57;18.93;;;14.97;;
2173;SDS011;1093;51.424;11.764;2023-05-13T00:35:23;15.60;;;14.00;;
2173;SDS011;1093;51.424;11.764;2023-05-13T00:37:50;17.00;;;14.67;;
2173;SDS011;1093;51.424;11.764;2023-05-13T00:40:18;17.57;;;14.87;;
2173;SDS011;1093;51.424;11.764;2023-05-13T00:42:46;21.30;;;15.60;;
2173;SDS011;1093;51.424;11.764;2023-05-13T00:45:13;15.57;;;13.97;;
2173;SDS011;1093;51.424;11.764;2023-05-13T00:47:41;13.47;;;12.10;;
2173;SDS011;1093;51.424;11.764;2023-05-13T00:50:09;14.03;;;12.47;;
2173;SDS011;1093;51.424;11.764;2023-05-13T00:52:36;14.47;;;13.03;;
2173;SDS011;1093;51.424;11.764;2023-05-13T00:55:05;14.17;;;12.80;;
2173;SDS011;1093;51.424;11.764;2023-05-13T00:57:33;13.60;;;12.20;;
2173;SDS011;1093;51.424;11.764;2023-05-13T01:00:00;13.90;;;12.50;;
2173;SDS011;1093;51.424;11.764;2023-05-13T01:02:32;15.03;;;13.70;;
2173;SDS011;1093;51.424;11.764;2023-05-13T01:05:08;15.07;;;12.83;;
2173;SDS011;1093;51.424;11.764;2023-05-13T01:07:43;14.27;;;12.80;;
2173;SDS011;1093;51.424;11.764;2023-05-13T01:10:18;15.10;;;13.60;;
2173;SDS011;1093;51.424;11.764;2023-05-13T01:12:52;18.13;;;12.33;;
2173;SDS011;1093;51.424;11.764;2023-05-13T01:15:23;15.23;;;13.40;;
2173;SDS011;1093;51.424;11.764;2023-05-13T01:17:52;15.10;;;13.50;;
2173;SDS011;1093;51.424;11.764;2023-05-13T01:20:23;13.90;;;12.57;;
2173;SDS011;1093;51.424;11.764;2023-05-13T01:22:54;13.10;;;11.90;;
2173;SDS011;1093;51.424;11.764;2023-05-13T01:25:21;14.73;;;13.23;;
2173;SDS011;1093;51.424;11.764;2023-05-13T01:27:49;14.27;;;12.77;;
2173;SDS011;1093;51.424;11.764;2023-05-13T01:30:16;13.70;;;12.40;;
2173;SDS011;1093;51.424;11.764;2023-05-13T01:32:44;16.27;;;14.67;;
2173;SDS011;1093;51.424;11.764;2023-05-13T01:35:11;15.60;;;14.00;;
2173;SDS011;1093;51.424;11.764;2023-05-13T01:37:40;15.70;;;14.10;;
2173;SDS011;1093;51.424;11.764;2023-05-13T01:40:10;15.20;;;13.60;;
2173;SDS011;1093;51.424;11.764;2023-05-13T01:42:38;15.80;;;14.40;;
2173;SDS011;1093;51.424;11.764;2023-05-13T01:45:05;16.13;;;13.33;;
2173;SDS011;1093;51.424;11.764;2023-05-13T01:47:32;16.07;;;14.43;;
2173;SDS011;1093;51.424;11.764;2023-05-13T01:49:59;16.50;;;13.57;;
2173;SDS011;1093;51.424;11.764;2023-05-13T01:52:26;14.70;;;13.30;;
2173;SDS011;1093;51.424;11.764;2023-05-13T01:54:52;15.13;;;13.30;;
2173;SDS011;1093;51.424;11.764;2023-05-13T01:57:20;15.13;;;13.43;;
2173;SDS011;1093;51.424;11.764;2023-05-13T01:59:47;20.30;;;15.67;;
2173;SDS011;1093;51.424;11.764;2023-05-13T02:02:14;17.00;;;15.20;;
2173;SDS011;1093;51.424;11.764;2023-05-13T02:04:40;17.57;;;14.47;;
2173;SDS011;1093;51.424;11.764;2023-05-13T02:07:07;14.83;;;13.43;;
2173;SDS011;1093;51.424;11.764;2023-05-13T02:09:34;17.40;;;13.93;;
2173;SDS011;1093;51.424;11.764;2023-05-13T02:12:00;16.03;;;14.33;;
2173;SDS011;1093;51.424;11.764;2023-05-13T02:14:28;16.37;;;13.87;;
2173;SDS011;1093;51.424;11.764;2023-05-13T02:16:55;15.93;;;14.03;;
2173;SDS011;1093;51.424;11.764;2023-05-13T02:19:22;21.73;;;16.87;;
2173;SDS011;1093;51.424;11.764;2023-05-13T02:21:52;17.73;;;15.90;;
2173;SDS011;1093;51.424;11.764;2023-05-13T02:24:19;18.33;;;15.67;;
2173;SDS011;1093;51.424;11.764;2023-05-13T02:26:45;14.80;;;13.20;;
2173;SDS011;1093;51.424;11.764;2023-05-13T02:29:12;18.77;;;16.73;;
2173;SDS011;1093;51.424;11.764;2023-05-13T02:31:40;19.33;;;14.80;;
2173;SDS011;1093;51.424;11.764;2023-05-13T02:34:07;17.00;;;15.30;;
2173;SDS011;1093;51.424;11.764;2023-05-13T02:36:34;17.37;;;15.57;;
2173;SDS011;1093;51.424;11.764;2023-05-13T02:39:00;16.30;;;14.60;;
2173;SDS011;1093;51.424;11.764;2023-05-13T02:41:27;17.37;;;15.57;;
2173;SDS011;1093;51.424;11.764;2023-05-13T02:43:54;19.30;;;17.40;;
2173;SDS011;1093;51.424;11.764;2023-05-13T02:46:20;18.30;;;16.50;;
2173;SDS011;1093;51.424;11.764;2023-05-13T02:48:48;18.90;;;16.07;;
2173;SDS011;1093;51.424;11.764;2023-05-13T02:51:15;23.53;;;16.70;;
2173;SDS011;1093;51.424;11.764;2023-05-13T02:53:42;18.83;;;16.80;;
2173;SDS011;1093;51.424;11.764;2023-05-13T02:56:08;17.50;;;15.67;;
2173;SDS011;1093;51.424;11.764;2023-05-13T02:58:35;21.00;;;15.77;;
2173;SDS011;1093;51.424;11.764;2023-05-13T03:01:02;21.30;;;17.17;;
2173;SDS011;1093;51.424;11.764;2023-05-13T03:03:28;18.67;;;16.77;;
2173;SDS011;1093;51.424;11.764;2023-05-13T03:05:57;17.90;;;16.00;;
2173;SDS011;1093;51.424;11.764;2023-05-13T03:08:23;20.97;;;14.73;;
2173;SDS011;1093;51.424;11.764;2023-05-13T03:10:50;19.50;;;14.83;;
2173;SDS011;1093;51.424;11.764;2023-05-13T03:13:17;18.13;;;16.13;;
2173;SDS011;1093;51.424;11.764;2023-05-13T03:15:43;21.93;;;17.07;;
2173;SDS011;1093;51.424;11.764;2023-05-13T03:18:10;19.37;;;16.73;;
2173;SDS011;1093;51.424;11.764;2023-05-13T03:20:37;17.40;;;15.67;;
2173;SDS011;1093;51.424;11.764;2023-05-13T03:23:05;17.63;;;15.83;;
2173;SDS011;1093;51.424;11.764;2023-05-13T03:25:31;15.87;;;14.20;;
2173;SDS011;1093;51.424;11.764;2023-05-13T03:27:58;16.60;;;13.87;;
2173;SDS011;1093;51.424;11.764;2023-05-13T03:30:25;18.53;;;14.03;;
2173;SDS011;1093;51.424;11.764;2023-05-13T03:32:52;17.07;;;14.63;;
2173;SDS011;1093;51.424;11.764;2023-05-13T03:35:20;18.03;;;16.10;;
2173;SDS011;1093;51.424;11.764;2023-05-13T03:37:47;18.00;;;14.93;;
2173;SDS011;1093;51.424;11.764;2023-05-13T03:40:16;20.27;;;15.77;;
2173;SDS011;1093;51.424;11.764;2023-05-13T03:42:43;16.73;;;14.93;;
2173;SDS011;1093;51.424;11.764;2023-05-13T03:45:10;18.87;;;15.17;;
2173;SDS011;1093;51.424;11.764;2023-05-13T03:47:37;20.00;;;15.73;;
2173;SDS011;1093;51.424;11.764;2023-05-13T03:50:04;33.17;;;17.90;;
2173;SDS011;1093;51.424;11.764;2023-05-13T03:52:31;18.33;;;15.73;;
2173;SDS011;1093;51.424;11.764;2023-05-13T03:54:58;21.20;;;16.90;;
2173;SDS011;1093;51.424;11.764;2023-05-13T03:57:26;30.60;;;17.40;;
2173;SDS011;1093;51.424;11.764;2023-05-13T03:59:53;17.90;;;16.00;;
2173;SDS011;1093;51.424;11.764;2023-05-13T04:02:19;16.83;;;15.03;;
2173;SDS011;1093;51.424;11.764;2023-05-13T04:04:48;18.13;;;15.83;;
2173;SDS011;1093;51.424;11.764;2023-05-13T04:07:15;22.70;;;16.80;;
2173;SDS011;1093;51.424;11.764;2023-05-13T04:09:41;18.57;;;14.90;;
2173;SDS011;1093;51.424;11.764;2023-05-13T04:12:08;19.67;;;16.43;;
2173;SDS011;1093;51.424;11.764;2023-05-13T04:14:36;18.70;;;16.77;;
2173;SDS011;1093;51.424;11.764;2023-05-13T04:17:04;18.90;;;16.87;;
2173;SDS011;1093;51.424;11.764;2023-05-13T04:19:30;19.90;;;16.30;;
2173;SDS011;1093;51.424;11.764;2023-05-13T04:21:57;19.93;;;16.40;;
2173;SDS011;1093;51.424;11.764;2023-05-13T04:24:24;18.10;;;16.23;;
2173;SDS011;1093;51.424;11.764;2023-05-13T04:26:51;20.70;;;15.77;;
2173;SDS011;1093;51.424;11.764;2023-05-13T04:29:17;26.67;;;18.30;;
2173;SDS011;1093;51.424;11.764;2023-05-13T04:31:45;20.20;;;17.27;;
2173;SDS011;1093;51.424;11.764;2023-05-13T04:34:12;20.90;;;17.63;;
2173;SDS011;1093;51.424;11.764;2023-05-13T04:36:39;21.53;;;18.37;;
2173;SDS011;1093;51.424;11.764;2023-05-13T04:39:06;18.73;;;16.83;;
2173;SDS011;1093;51.424;11.764;2023-05-13T04:41:32;17.13;;;15.33;;
2173;SDS011;1093;51.424;11.764;2023-05-13T04:43:59;23.30;;;18.10;;
2173;SDS011;1093;51.424;11.764;2023-05-13T04:46:26;19.03;;;17.13;;
2173;SDS011;1093;51.424;11.764;2023-05-13T04:48:54;20.57;;;15.60;;
2173;SDS011;1093;51.424;11.764;2023-05-13T04:51:21;19.23;;;15.10;;
2173;SDS011;1093;51.424;11.764;2023-05-13T04:53:47;18.57;;;15.10;;
2173;SDS011;1093;51.424;11.764;2023-05-13T04:56:14;20.47;;;16.30;;
2173;SDS011;1093;51.424;11.764;2023-05-13T04:58:41;18.93;;;16.20;;
2173;SDS011;1093;51.424;11.764;2023-05-13T05:01:08;16.73;;;14.73;;
2173;SDS011;1093;51.424;11.764;2023-05-13T05:03:34;16.43;;;14.73;;
2173;SDS011;1093;51.424;11.764;2023-05-13T05:06:02;16.40;;;13.67;;
2173;SDS011;1093;51.424;11.764;2023-05-13T05:08:29;16.97;;;13.97;;
2173;SDS011;1093;51.424;11.764;2023-05-13T05:10:56;17.80;;;15.63;;
2173;SDS011;1093;51.424;11.764;2023-05-13T05:13:22;18.57;;;15.40;;
2173;SDS011;1093;51.424;11.764;2023-05-13T05:15:49;20.87;;;16.87;;
2173;SDS011;1093;51.424;11.764;2023-05-13T05:18:16;23.50;;;16.80;;
2173;SDS011;1093;51.424;11.764;2023-05-13T05:20:43;18.77;;;14.73;;
2173;SDS011;1093;51.424;11.764;2023-05-13T05:23:11;18.13;;;14.37;;
2173;SDS011;1093;51.424;11.764;2023-05-13T05:25:37;16.80;;;14.87;;
2173;SDS011;1093;51.424;11.764;2023-05-13T05:28:04;18.33;;;15.10;;
2173;SDS011;1093;51.424;11.764;2023-05-13T05:30:31;15.53;;;13.13;;
2173;SDS011;1093;51.424;11.764;2023-05-13T05:33:03;15.50;;;13.90;;
2173;SDS011;1093;51.424;11.764;2023-05-13T05:35:30;16.47;;;12.77;;
2173;SDS011;1093;51.424;11.764;2023-05-13T05:37:57;13.83;;;12.20;;
2173;SDS011;1093;51.424;11.764;2023-05-13T05:40:25;14.57;;;12.90;;
2173;SDS011;1093;51.424;11.764;2023-05-13T05:42:52;15.10;;;12.87;;
2173;SDS011;1093;51.424;11.764;2023-05-13T05:45:18;15.43;;;13.40;;
2173;SDS011;1093;51.424;11.764;2023-05-13T05:47:45;15.97;;;13.53;;
2173;SDS011;1093;51.424;11.764;2023-05-13T05:50:12;16.23;;;13.60;;
2173;SDS011;1093;51.424;11.764;2023-05-13T05:52:38;17.27;;;13.90;;
2173;SDS011;1093;51.424;11.764;2023-05-13T05:55:06;18.90;;;13.73;;
2173;SDS011;1093;51.424;11.764;2023-05-13T05:57:34;15.30;;;13.70;;
2173;SDS011;1093;51.424;11.764;2023-05-13T06:00:01;18.10;;;13.73;;
2173;SDS011;1093;51.424;11.764;2023-05-13T06:02:28;16.20;;;14.27;;
2173;SDS011;1093;51.424;11.764;2023-05-13T06:04:55;16.03;;;14.30;;
2173;SDS011;1093;51.424;11.764;2023-05-13T06:07:22;17.57;;;15.00;;
2173;SDS011;1093;51.424;11.764;2023-05-13T06:09:48;20.33;;;15.07;;
2173;SDS011;1093;51.424;11.764;2023-05-13T06:12:15;17.83;;;15.93;;
2173;SDS011;1093;51.424;11.764;2023-05-13T06:14:43;19.00;;;15.90;;
2173;SDS011;1093;51.424;11.764;2023-05-13T06:17:10;15.97;;;13.80;;
2173;SDS011;1093;51.424;11.764;2023-05-13T06:19:38;17.80;;;14.23;;
2173;SDS011;1093;51.424;11.764;2023-05-13T06:22:06;20.10;;;16.30;;
2173;SDS011;1093;51.424;11.764;2023-05-13T06:24:33;16.83;;;14.00;;
2173;SDS011;1093;51.424;11.764;2023-05-13T06:27:00;19.40;;;15.30;;
2173;SDS011;1093;51.424;11.764;2023-05-13T06:29:26;18.00;;;15.10;;
2173;SDS011;1093;51.424;11.764;2023-05-13T06:31:54;16.53;;;14.27;;
2173;SDS011;1093;51.424;11.764;2023-05-13T06:34:21;20.23;;;14.70;;
2173;SDS011;1093;51.424;11.764;2023-05-13T06:36:48;16.40;;;14.80;;
2173;SDS011;1093;51.424;11.764;2023-05-13T06:39:14;17.63;;;15.13;;
2173;SDS011;1093;51.424;11.764;2023-05-13T06:41:41;17.53;;;15.73;;
2173;SDS011;1093;51.424;11.764;2023-05-13T06:44:08;16.87;;;15.13;;
2173;SDS011;1093;51.424;11.764;2023-05-13T06:46:34;17.90;;;14.93;;
2173;SDS011;1093;51.424;11.764;2023-05-13T06:49:02;17.90;;;16.10;;
2173;SDS011;1093;51.424;11.764;2023-05-13T06:51:29;18.67;;;16.87;;
2173;SDS011;1093;51.424;11.764;2023-05-13T06:53:57;19.27;;;16.70;;
2173;SDS011;1093;51.424;11.764;2023-05-13T06:56:24;22.90;;;17.57;;
2173;SDS011;1093;51.424;11.764;2023-05-13T06:58:51;18.97;;;16.97;;
2173;SDS011;1093;51.424;11.764;2023-05-13T07:01:18;24.90;;;17.13;;
2173;SDS011;1093;51.424;11.764;2023-05-13T07:03:45;27.53;;;18.93;;
2173;SDS011;1093;51.424;11.764;2023-05-13T07:06:15;19.93;;;17.80;;
2173;SDS011;1093;51.424;11.764;2023-05-13T07:08:42;22.20;;;17.17;;
2173;SDS011;1093;51.424;11.764;2023-05-13T07:11:09;23.03;;;18.60;;
2173;SDS011;1093;51.424;11.764;2023-05-13T07:13:35;20.87;;;18.03;;
2173;SDS011;1093;51.424;11.764;2023-05-13T07:16:02;19.10;;;17.10;;
2173;SDS011;1093;51.424;11.764;2023-05-13T07:18:29;18.73;;;16.83;;
2173;SDS011;1093;51.424;11.764;2023-05-13T07:20:56;20.33;;;17.97;;
2173;SDS011;1093;51.424;11.764;2023-05-13T07:23:24;22.63;;;17.97;;
2173;SDS011;1093;51.424;11.764;2023-05-13T07:25:50;19.97;;;16.70;;
2173;SDS011;1093;51.424;11.764;2023-05-13T07:28:17;23.13;;;19.67;;
2173;SDS011;1093;51.424;11.764;2023-05-13T07:30:45;20.93;;;17.40;;
2173;SDS011;1093;51.424;11.764;2023-05-13T07:33:11;18.50;;;16.67;;
2173;SDS011;1093;51.424;11.764;2023-05-13T07:35:38;18.20;;;16.13;;
2173;SDS011;1093;51.424;11.764;2023-05-13T07:38:05;21.60;;;17.50;;
2173;SDS011;1093;51.424;11.764;2023-05-13T07:40:35;22.03;;;18.90;;
2173;SDS011;1093;51.424;11.764;2023-05-13T07:43:02;18.77;;;16.77;;
2173;SDS011;1093;51.424;11.764;2023-05-13T07:45:30;19.70;;;17.63;;
2173;SDS011;1093;51.424;11.764;2023-05-13T07:47:56;17.67;;;15.90;;
2173;SDS011;1093;51.424;11.764;2023-05-13T07:50:23;16.30;;;14.30;;
2173;SDS011;1093;51.424;11.764;2023-05-13T07:52:50;13.50;;;12.20;;
2173;SDS011;1093;51.424;11.764;2023-05-13T07:55:17;16.67;;;14.90;;
2173;SDS011;1093;51.424;11.764;2023-05-13T07:57:45;22.40;;;16.53;;
2173;SDS011;1093;51.424;11.764;2023-05-13T08:00:12;20.40;;;16.20;;
2173;SDS011;1093;51.424;11.764;2023-05-13T08:02:40;17.30;;;14.87;;
2173;SDS011;1093;51.424;11.764;2023-05-13T08:05:07;17.33;;;13.87;;
2173;SDS011;1093;51.424;11.764;2023-05-13T08:07:35;15.40;;;13.40;;
2173;SDS011;1093;51.424;11.764;2023-05-13T08:10:01;15.07;;;13.23;;
2173;SDS011;1093;51.424;11.764;2023-05-13T08:12:28;15.63;;;14.13;;
2173;SDS011;1093;51.424;11.764;2023-05-13T08:14:56;17.33;;;12.97;;
2173;SDS011;1093;51.424;11.764;2023-05-13T08:17:23;16.93;;;14.47;;
2173;SDS011;1093;51.424;11.764;2023-05-13T08:19:50;14.37;;;12.87;;
2173;SDS011;1093;51.424;11.764;2023-05-13T08:22:17;14.73;;;12.30;;
2173;SDS011;1093;51.424;11.764;2023-05-13T08:24:43;20.30;;;14.97;;
2173;SDS011;1093;51.424;11.764;2023-05-13T08:27:10;13.63;;;12.20;;
2173;SDS011;1093;51.424;11.764;2023-05-13T08:29:37;16.53;;;13.13;;
2173;SDS011;1093;51.424;11.764;2023-05-13T08:32:05;14.77;;;13.17;;
2173;SDS011;1093;51.424;11.764;2023-05-13T08:34:32;13.30;;;12.00;;
2173;SDS011;1093;51.424;11.764;2023-05-13T08:36:58;16.93;;;13.67;;
2173;SDS011;1093;51.424;11.764;2023-05-13T08:39:25;12.77;;;11.10;;
2173;SDS011;1093;51.424;11.764;2023-05-13T08:41:52;14.00;;;11.70;;
2173;SDS011;1093;51.424;11.764;2023-05-13T08:44:21;13.53;;;12.03;;
2173;SDS011;1093;51.424;11.764;2023-05-13T08:46:55;12.00;;;10.80;;
2173;SDS011;1093;51.424;11.764;2023-05-13T08:49:30;18.17;;;11.70;;
2173;SDS011;1093;51.424;11.764;2023-05-13T08:51:58;12.30;;;11.10;;
2173;SDS011;1093;51.424;11.764;2023-05-13T08:54:25;12.43;;;11.13;;
2173;SDS011;1093;51.424;11.764;2023-05-13T08:56:54;15.63;;;10.90;;
2173;SDS011;1093;51.424;11.764;2023-05-13T08:59:21;11.13;;;9.97;;
2173;SDS011;1093;51.424;11.764;2023-05-13T09:01:49;11.60;;;10.50;;
2173;SDS011;1093;51.424;11.764;2023-05-13T09:04:17;14.30;;;9.93;;
2173;SDS011;1093;51.424;11.764;2023-05-13T09:06:46;14.57;;;11.03;;
2173;SDS011;1093;51.424;11.764;2023-05-13T09:09:13;15.37;;;9.90;;
2173;SDS011;1093;51.424;11.764;2023-05-13T09:11:40;12.83;;;11.47;;
2173;SDS011;1093;51.424;11.764;2023-05-13T09:14:06;10.40;;;9.40;;
2173;SDS011;1093;51.424;11.764;2023-05-13T09:16:36;9.30;;;8.30;;
2173;SDS011;1093;51.424;11.764;2023-05-13T09:19:03;13.03;;;10.37;;
2173;SDS011;1093;51.424;11.764;2023-05-13T09:21:32;10.97;;;9.87;;
2173;SDS011;1093;51.424;11.764;2023-05-13T09:24:03;10.77;;;9.50;;
2173;SDS011;1093;51.424;11.764;2023-05-13T09:26:32;10.63;;;9.70;;
2173;SDS011;1093;51.424;11.764;2023-05-13T09:29:18;16.93;;;10.77;;
2173;SDS011;1093;51.424;11.764;2023-05-13T09:31:47;13.77;;;10.80;;
2173;SDS011;1093;51.424;11.764;2023-05-13T09:34:21;9.60;;;8.60;;
2173;SDS011;1093;51.424;11.764;2023-05-13T09:36:54;10.30;;;8.60;;
2173;SDS011;1093;51.424;11.764;2023-05-13T09:39:23;11.13;;;8.60;;
2173;SDS011;1093;51.424;11.764;2023-05-13T09:41:50;9.90;;;8.17;;
2173;SDS011;1093;51.424;11.764;2023-05-13T09:44:17;9.03;;;6.70;;
2173;SDS011;1093;51.424;11.764;2023-05-13T09:46:45;8.37;;;7.67;;
2173;SDS011;1093;51.424;11.764;2023-05-13T09:49:13;9.37;;;8.47;;
2173;SDS011;1093;51.424;11.764;2023-05-13T09:51:41;9.93;;;6.07;;
2173;SDS011;1093;51.424;11.764;2023-05-13T09:54:08;7.43;;;6.37;;
2173;SDS011;1093;51.424;11.764;2023-05-13T09:56:36;7.33;;;6.63;;
2173;SDS011;1093;51.424;11.764;2023-05-13T09:59:03;7.50;;;6.90;;
2173;SDS011;1093;51.424;11.764;2023-05-13T10:01:30;6.80;;;5.60;;
2173;SDS011;1093;51.424;11.764;2023-05-13T10:03:57;7.10;;;5.57;;
2173;SDS011;1093;51.424;11.764;2023-05-13T10:06:25;12.23;;;6.20;;
2173;SDS011;1093;51.424;11.764;2023-05-13T10:08:53;9.03;;;6.63;;
2173;SDS011;1093;51.424;11.764;2023-05-13T10:11:22;6.87;;;6.27;;
2173;SDS011;1093;51.424;11.764;2023-05-13T10:13:54;7.37;;;6.50;;
2173;SDS011;1093;51.424;11.764;2023-05-13T10:16:24;7.60;;;6.90;;
2173;SDS011;1093;51.424;11.764;2023-05-13T10:18:51;7.20;;;6.50;;
2173;SDS011;1093;51.424;11.764;2023-05-13T10:21:18;7.10;;;6.33;;
2173;SDS011;1093;51.424;11.764;2023-05-13T10:23:45;7.50;;;6.80;;
2173;SDS011;1093;51.424;11.764;2023-05-13T10:26:15;9.70;;;6.20;;
2173;SDS011;1093;51.424;11.764;2023-05-13T10:28:42;9.03;;;6.37;;
2173;SDS011;1093;51.424;11.764;2023-05-13T10:31:12;7.83;;;6.23;;
2173;SDS011;1093;51.424;11.764;2023-05-13T10:33:39;10.87;;;5.47;;
2173;SDS011;1093;51.424;11.764;2023-05-13T10:36:12;6.17;;;5.57;;
2173;SDS011;1093;51.424;11.764;2023-05-13T10:38:52;5.77;;;5.17;;
2173;SDS011;1093;51.424;11.764;2023-05-13T10:42:01;6.63;;;5.80;;
2173;SDS011;1093;51.424;11.764;2023-05-13T10:44:45;8.63;;;6.10;;
2173;SDS011;1093;51.424;11.764;2023-05-13T10:47:14;5.67;;;5.13;;
2173;SDS011;1093;51.424;11.764;2023-05-13T10:49:43;5.33;;;4.83;;
2173;SDS011;1093;51.424;11.764;2023-05-13T10:52:16;8.70;;;6.13;;
2173;SDS011;1093;51.424;11.764;2023-05-13T10:54:56;6.00;;;5.40;;
2173;SDS011;1093;51.424;11.764;2023-05-13T10:57:26;6.60;;;5.57;;
2173;SDS011;1093;51.424;11.764;2023-05-13T11:00:12;5.20;;;4.70;;
2173;SDS011;1093;51.424;11.764;2023-05-13T11:02:41;5.90;;;5.00;;
2173;SDS011;1093;51.424;11.764;2023-05-13T11:05:08;5.33;;;4.60;;
2173;SDS011;1093;51.424;11.764;2023-05-13T11:07:36;6.37;;;4.87;;
2173;SDS011;1093;51.424;11.764;2023-05-13T11:10:09;6.13;;;5.30;;
2173;SDS011;1093;51.424;11.764;2023-05-13T11:15:41;6.30;;;5.17;;
2173;SDS011;1093;51.424;11.764;2023-05-13T11:18:10;5.77;;;5.27;;
2173;SDS011;1093;51.424;11.764;2023-05-13T11:20:37;6.40;;;5.90;;
2173;SDS011;1093;51.424;11.764;2023-05-13T11:23:04;7.63;;;6.27;;
2173;SDS011;1093;51.424;11.764;2023-05-13T11:25:32;7.97;;;5.33;;
2173;SDS011;1093;51.424;11.764;2023-05-13T11:28:00;5.90;;;5.40;;
2173;SDS011;1093;51.424;11.764;2023-05-13T11:30:28;6.40;;;5.80;;
2173;SDS011;1093;51.424;11.764;2023-05-13T11:32:55;6.87;;;6.00;;
2173;SDS011;1093;51.424;11.764;2023-05-13T11:35:25;10.00;;;6.07;;
2173;SDS011;1093;51.424;11.764;2023-05-13T11:37:53;5.37;;;4.87;;
2173;SDS011;1093;51.424;11.764;2023-05-13T11:40:20;9.80;;;5.60;;
2173;SDS011;1093;51.424;11.764;2023-05-13T11:42:47;16.67;;;7.20;;
2173;SDS011;1093;51.424;11.764;2023-05-13T11:45:15;6.13;;;5.63;;
2173;SDS011;1093;51.424;11.764;2023-05-13T11:47:42;5.57;;;5.07;;
2173;SDS011;1093;51.424;11.764;2023-05-13T11:50:16;6.50;;;5.70;;
2173;SDS011;1093;51.424;11.764;2023-05-13T11:52:44;7.63;;;5.27;;
2173;SDS011;1093;51.424;11.764;2023-05-13T11:55:23;9.13;;;7.10;;
2173;SDS011;1093;51.424;11.764;2023-05-13T11:57:51;10.10;;;5.87;;
2173;SDS011;1093;51.424;11.764;2023-05-13T12:00:22;7.80;;;5.60;;
2173;SDS011;1093;51.424;11.764;2023-05-13T12:02:50;7.03;;;5.43;;
2173;SDS011;1093;51.424;11.764;2023-05-13T12:05:16;6.90;;;5.70;;
2173;SDS011;1093;51.424;11.764;2023-05-13T12:07:45;9.63;;;5.50;;
2173;SDS011;1093;51.424;11.764;2023-05-13T12:10:11;6.10;;;4.70;;
2173;SDS011;1093;51.424;11.764;2023-05-13T12:12:42;9.93;;;6.33;;
2173;SDS011;1093;51.424;11.764;2023-05-13T12:15:10;7.83;;;5.60;;
2173;SDS011;1093;51.424;11.764;2023-05-13T12:17:38;7.20;;;5.60;;
2173;SDS011;1093;51.424;11.764;2023-05-13T12:20:08;7.10;;;5.70;;
2173;SDS011;1093;51.424;11.764;2023-05-13T12:22:49;6.90;;;5.83;;
2173;SDS011;1093;51.424;11.764;2023-05-13T12:25:37;9.43;;;6.00;;
2173;SDS011;1093;51.424;11.764;2023-05-13T12:28:08;10.10;;;6.37;;
2173;SDS011;1093;51.424;11.764;2023-05-13T12:30:37;5.90;;;5.30;;
2173;SDS011;1093;51.424;11.764;2023-05-13T12:33:05;6.27;;;4.93;;
2173;SDS011;1093;51.424;11.764;2023-05-13T12:35:38;4.83;;;4.30;;
2173;SDS011;1093;51.424;11.764;2023-05-13T12:38:06;7.47;;;6.03;;
2173;SDS011;1093;51.424;11.764;2023-05-13T12:40:32;6.30;;;5.47;;
2173;SDS011;1093;51.424;11.764;2023-05-13T12:42:59;5.70;;;5.00;;
2173;SDS011;1093;51.424;11.764;2023-05-13T12:45:27;8.90;;;5.13;;
2173;SDS011;1093;51.424;11.764;2023-05-13T12:47:55;7.00;;;4.50;;
2173;SDS011;1093;51.424;11.764;2023-05-13T12:50:22;5.60;;;5.10;;
2173;SDS011;1093;51.424;11.764;2023-05-13T12:52:49;7.57;;;5.53;;
2173;SDS011;1093;51.424;11.764;2023-05-13T12:55:18;5.40;;;4.73;;
2173;SDS011;1093;51.424;11.764;2023-05-13T12:57:52;5.37;;;4.97;;
2173;SDS011;1093;51.424;11.764;2023-05-13T13:00:20;6.07;;;5.57;;
2173;SDS011;1093;51.424;11.764;2023-05-13T13:02:51;5.33;;;4.80;;
2173;SDS011;1093;51.424;11.764;2023-05-13T13:05:18;5.63;;;5.07;;
2173;SDS011;1093;51.424;11.764;2023-05-13T13:07:45;6.13;;;5.30;;
2173;SDS011;1093;51.424;11.764;2023-05-13T13:10:12;6.67;;;4.80;;
2173;SDS011;1093;51.424;11.764;2023-05-13T13:12:40;8.10;;;5.60;;
2173;SDS011;1093;51.424;11.764;2023-05-13T13:15:08;6.77;;;5.27;;
2173;SDS011;1093;51.424;11.764;2023-05-13T13:17:35;12.53;;;4.60;;
2173;SDS011;1093;51.424;11.764;2023-05-13T13:20:03;4.83;;;4.43;;
2173;SDS011;1093;51.424;11.764;2023-05-13T13:22:32;5.40;;;5.00;;
2173;SDS011;1093;51.424;11.764;2023-05-13T13:25:00;5.70;;;4.90;;
2173;SDS011;1093;51.424;11.764;2023-05-13T13:27:28;9.50;;;5.30;;
2173;SDS011;1093;51.424;11.764;2023-05-13T13:29:56;8.50;;;5.30;;
2173;SDS011;1093;51.424;11.764;2023-05-13T13:32:22;7.17;;;5.10;;
2173;SDS011;1093;51.424;11.764;2023-05-13T13:34:49;4.47;;;4.07;;
2173;SDS011;1093;51.424;11.764;2023-05-13T13:37:16;8.70;;;5.07;;
2173;SDS011;1093;51.424;11.764;2023-05-13T13:39:43;5.57;;;4.37;;
2173;SDS011;1093;51.424;11.764;2023-05-13T13:42:09;5.60;;;4.40;;
2173;SDS011;1093;51.424;11.764;2023-05-13T13:44:36;4.57;;;4.17;;
2173;SDS011;1093;51.424;11.764;2023-05-13T13:47:04;4.90;;;4.20;;
2173;SDS011;1093;51.424;11.764;2023-05-13T13:49:31;7.23;;;4.67;;
2173;SDS011;1093;51.424;11.764;2023-05-13T13:51:58;5.20;;;4.70;;
2173;SDS011;1093;51.424;11.764;2023-05-13T13:54:24;6.63;;;5.00;;
2173;SDS011;1093;51.424;11.764;2023-05-13T13:56:51;4.10;;;3.80;;
2173;SDS011;1093;51.424;11.764;2023-05-13T13:59:18;6.60;;;4.87;;
2173;SDS011;1093;51.424;11.764;2023-05-13T14:01:45;10.63;;;4.90;;
2173;SDS011;1093;51.424;11.764;2023-05-13T14:04:13;4.83;;;4.00;;
2173;SDS011;1093;51.424;11.764;2023-05-13T14:06:41;6.07;;;4.50;;
2173;SDS011;1093;51.424;11.764;2023-05-13T14:09:11;4.77;;;4.30;;
2173;SDS011;1093;51.424;11.764;2023-05-13T14:11:37;14.57;;;4.97;;
2173;SDS011;1093;51.424;11.764;2023-05-13T14:14:04;16.30;;;5.40;;
2173;SDS011;1093;51.424;11.764;2023-05-13T14:16:31;6.63;;;4.80;;
2173;SDS011;1093;51.424;11.764;2023-05-13T14:18:57;5.90;;;5.30;;
2173;SDS011;1093;51.424;11.764;2023-05-13T14:21:26;11.47;;;4.73;;
2173;SDS011;1093;51.424;11.764;2023-05-13T14:23:52;5.37;;;4.37;;
2173;SDS011;1093;51.424;11.764;2023-05-13T14:26:19;7.17;;;5.30;;
2173;SDS011;1093;51.424;11.764;2023-05-13T14:28:47;7.23;;;4.23;;
2173;SDS011;1093;51.424;11.764;2023-05-13T14:31:14;7.90;;;5.00;;
2173;SDS011;1093;51.424;11.764;2023-05-13T14:33:41;18.00;;;4.40;;
2173;SDS011;1093;51.424;11.764;2023-05-13T14:36:08;4.17;;;3.60;;
2173;SDS011;1093;51.424;11.764;2023-05-13T14:38:36;5.23;;;3.97;;
2173;SDS011;1093;51.424;11.764;2023-05-13T14:41:04;5.13;;;3.80;;
2173;SDS011;1093;51.424;11.764;2023-05-13T14:43:31;4.17;;;3.77;;
2173;SDS011;1093;51.424;11.764;2023-05-13T14:45:58;4.23;;;3.93;;
2173;SDS011;1093;51.424;11.764;2023-05-13T14:48:24;5.57;;;3.23;;
2173;SDS011;1093;51.424;11.764;2023-05-13T14:50:52;4.70;;;3.80;;